createdAt,value
2022-12-06T00:00:22.138Z,16.30
2022-12-06T00:02:24.095Z,16.30
2022-12-06T00:04:25.885Z,16.30
2022-12-06T00:06:29.012Z,16.30
2022-12-06T00:08:30.802Z,16.30
2022-12-06T00:10:34.511Z,16.30
2022-12-06T00:12:36.243Z,16.30
2022-12-06T00:14:39.097Z,16.30
2022-12-06T00:16:40.977Z,16.30
2022-12-06T00:18:44.610Z,16.30
2022-12-06T00:20:46.358Z,16.30
2022-12-06T00:22:48.191Z,16.30
2022-12-06T00:24:49.961Z,16.30
2022-12-06T00:26:51.862Z,16.30
2022-12-06T00:28:58.221Z,16.30
2022-12-06T00:31:01.410Z,16.30
2022-12-06T00:33:03.209Z,16.30
2022-12-06T00:35:05.371Z,16.30
2022-12-06T00:37:07.121Z,16.30
2022-12-06T00:39:13.097Z,16.30
2022-12-06T00:41:16.086Z,16.30
2022-12-06T00:43:17.919Z,16.30
2022-12-06T00:45:19.667Z,16.30
2022-12-06T00:47:21.478Z,16.30
2022-12-06T00:49:23.209Z,16.30
2022-12-06T00:51:26.419Z,16.30
2022-12-06T00:53:28.420Z,16.30
2022-12-06T00:55:30.221Z,16.30
2022-12-06T00:57:31.994Z,16.30
2022-12-06T00:59:33.889Z,16.30
2022-12-06T01:01:35.789Z,16.30
2022-12-06T01:03:38.319Z,16.30
2022-12-06T01:05:41.519Z,16.30
2022-12-06T01:07:43.448Z,16.30
2022-12-06T01:09:45.309Z,16.30
2022-12-06T01:11:47.180Z,16.20
2022-12-06T01:13:48.946Z,16.30
2022-12-06T01:15:50.797Z,16.20
2022-12-06T01:17:52.581Z,16.20
2022-12-06T01:19:54.400Z,16.20
2022-12-06T01:21:56.146Z,16.20
2022-12-06T01:23:58.074Z,16.30
2022-12-06T01:25:59.877Z,16.30
2022-12-06T01:28:01.728Z,16.20
2022-12-06T01:30:04.558Z,16.30
2022-12-06T01:32:06.409Z,16.20
2022-12-06T01:34:13.457Z,16.30
2022-12-06T01:36:19.027Z,16.20
2022-12-06T01:38:20.792Z,16.20
2022-12-06T01:40:22.618Z,16.20
2022-12-06T01:42:24.365Z,16.20
2022-12-06T01:44:41.262Z,16.20
2022-12-06T01:46:44.781Z,16.20
2022-12-06T01:48:48.481Z,16.20
2022-12-06T01:50:50.234Z,16.20
2022-12-06T01:52:55.507Z,16.20
2022-12-06T01:54:59.010Z,16.20
2022-12-06T01:57:02.403Z,16.20
2022-12-06T01:59:04.210Z,16.20
2022-12-06T02:01:07.435Z,16.20
2022-12-06T02:03:12.218Z,16.20
2022-12-06T02:05:15.148Z,16.20
2022-12-06T02:07:17.308Z,16.20
2022-12-06T02:09:20.069Z,16.20
2022-12-06T02:11:21.892Z,16.20
2022-12-06T02:13:24.362Z,16.20
2022-12-06T02:15:32.219Z,16.20
2022-12-06T02:17:36.667Z,16.20
2022-12-06T02:19:52.806Z,16.20
2022-12-06T02:21:57.389Z,16.20
2022-12-06T02:24:22.493Z,16.20
2022-12-06T02:26:24.311Z,16.20
2022-12-06T02:28:39.225Z,16.20
2022-12-06T02:30:47.153Z,16.20
2022-12-06T02:32:59.933Z,16.20
2022-12-06T02:35:20.441Z,16.20
2022-12-06T02:37:22.162Z,16.10
2022-12-06T02:39:33.782Z,16.20
2022-12-06T02:41:37.443Z,16.20
2022-12-06T02:43:52.220Z,16.20
2022-12-06T02:45:57.147Z,16.20
2022-12-06T02:48:01.706Z,16.10
2022-12-06T02:50:05.160Z,16.20
2022-12-06T02:52:07.103Z,16.10
2022-12-06T02:54:10.006Z,16.10
2022-12-06T02:56:13.204Z,16.20
2022-12-06T02:58:14.975Z,16.20
2022-12-06T03:00:30.918Z,16.20
2022-12-06T03:02:34.689Z,16.10
2022-12-06T03:05:01.939Z,16.20
2022-12-06T03:07:22.304Z,16.10
2022-12-06T03:09:36.257Z,16.10
2022-12-06T03:11:40.946Z,16.10
2022-12-06T03:14:00.430Z,16.10
2022-12-06T03:16:11.065Z,16.20
2022-12-06T03:18:27.874Z,16.20
2022-12-06T03:20:39.696Z,16.10
2022-12-06T03:22:44.613Z,16.10
2022-12-06T03:24:47.174Z,16.20
2022-12-06T03:26:50.062Z,16.10
2022-12-06T03:28:53.742Z,16.20
2022-12-06T03:30:58.663Z,16.20
2022-12-06T03:33:00.830Z,16.10
2022-12-06T03:35:07.380Z,16.20
2022-12-06T03:37:11.167Z,16.10
2022-12-06T03:39:14.654Z,16.20
2022-12-06T03:41:16.734Z,16.20
2022-12-06T03:43:19.037Z,16.20
2022-12-06T03:45:23.240Z,16.10
2022-12-06T03:47:33.588Z,16.20
2022-12-06T03:49:37.270Z,16.10
2022-12-06T03:51:39.710Z,16.10
2022-12-06T03:53:45.866Z,16.20
2022-12-06T03:55:47.749Z,16.10
2022-12-06T03:57:49.595Z,16.10
2022-12-06T03:59:51.462Z,16.10
2022-12-06T04:01:53.465Z,16.10
2022-12-06T04:03:55.850Z,16.10
2022-12-06T04:05:57.619Z,16.10
2022-12-06T04:07:59.737Z,16.20
2022-12-06T04:10:02.141Z,16.20
2022-12-06T04:12:04.720Z,16.20
2022-12-06T04:14:06.595Z,16.20
2022-12-06T04:16:08.955Z,16.10
2022-12-06T04:18:11.876Z,16.20
2022-12-06T04:20:13.705Z,16.10
2022-12-06T04:22:15.546Z,16.10
2022-12-06T04:24:18.114Z,16.10
2022-12-06T04:26:20.955Z,16.10
2022-12-06T04:28:22.852Z,16.10
2022-12-06T04:30:24.683Z,16.10
2022-12-06T04:32:26.602Z,16.10
2022-12-06T04:34:28.535Z,16.10
2022-12-06T04:36:30.603Z,16.10
2022-12-06T04:38:32.596Z,16.10
2022-12-06T04:40:34.628Z,16.10
2022-12-06T04:42:36.528Z,16.10
2022-12-06T04:44:38.490Z,16.10
2022-12-06T04:46:40.307Z,16.10
2022-12-06T04:48:42.568Z,16.10
2022-12-06T04:50:48.018Z,16.10
2022-12-06T04:52:49.898Z,16.10
2022-12-06T04:54:51.732Z,16.10
2022-12-06T04:56:54.602Z,16.10
2022-12-06T04:58:56.406Z,16.10
2022-12-06T05:00:58.509Z,16.10
2022-12-06T05:03:00.397Z,16.10
2022-12-06T05:05:03.190Z,16.10
2022-12-06T05:07:05.063Z,16.10
2022-12-06T05:09:07.062Z,16.10
2022-12-06T05:11:08.922Z,16.10
2022-12-06T05:13:10.775Z,16.10
2022-12-06T05:15:15.792Z,16.10
2022-12-06T05:17:17.894Z,16.10
2022-12-06T05:19:19.958Z,16.10
2022-12-06T05:21:22.915Z,16.10
2022-12-06T05:23:24.739Z,16.10
2022-12-06T05:25:26.694Z,16.10
2022-12-06T05:27:32.894Z,16.10
2022-12-06T05:29:37.837Z,16.10
2022-12-06T05:31:39.638Z,16.10
2022-12-06T05:33:41.909Z,16.10
2022-12-06T05:35:43.774Z,16.10
2022-12-06T05:37:45.657Z,16.10
2022-12-06T05:39:47.478Z,16.10
2022-12-06T05:41:49.352Z,16.10
2022-12-06T05:43:51.564Z,16.10
2022-12-06T05:45:54.151Z,16.10
2022-12-06T05:47:56.003Z,16.10
2022-12-06T05:49:58.188Z,16.10
2022-12-06T05:52:04.013Z,16.10
2022-12-06T05:54:06.413Z,16.10
2022-12-06T05:56:09.588Z,16.10
2022-12-06T05:58:11.583Z,16.10
2022-12-06T06:00:13.739Z,16.10
2022-12-06T06:02:15.911Z,16.10
2022-12-06T06:04:17.820Z,16.10
2022-12-06T06:06:19.793Z,16.10
2022-12-06T06:08:21.738Z,16.10
2022-12-06T06:10:24.623Z,16.10
2022-12-06T06:12:26.541Z,16.00
2022-12-06T06:14:28.620Z,16.10
2022-12-06T06:16:30.566Z,16.10
2022-12-06T06:18:32.447Z,16.10
2022-12-06T06:20:34.475Z,16.10
2022-12-06T06:22:37.577Z,16.10
2022-12-06T06:24:41.074Z,16.10
2022-12-06T06:26:42.954Z,16.00
2022-12-06T06:28:44.872Z,16.00
2022-12-06T06:30:46.708Z,16.00
2022-12-06T06:32:48.540Z,16.00
2022-12-06T06:34:50.510Z,16.00
2022-12-06T06:36:52.559Z,16.00
2022-12-06T06:38:54.682Z,16.00
2022-12-06T06:40:56.533Z,16.10
2022-12-06T06:42:58.490Z,16.00
2022-12-06T06:45:00.623Z,16.00
2022-12-06T06:47:02.538Z,16.00
2022-12-06T06:49:04.570Z,16.00
2022-12-06T06:51:10.731Z,16.00
2022-12-06T06:53:12.581Z,16.10
2022-12-06T06:55:14.552Z,16.00
2022-12-06T06:57:18.039Z,16.00
2022-12-06T06:59:20.168Z,16.00
2022-12-06T07:01:23.485Z,16.10
2022-12-06T07:03:26.181Z,16.10
2022-12-06T07:05:28.025Z,16.10
2022-12-06T07:07:29.915Z,16.10
2022-12-06T07:09:31.843Z,16.10
2022-12-06T07:11:33.779Z,16.10
2022-12-06T07:13:36.646Z,16.00
2022-12-06T07:15:38.583Z,16.10
2022-12-06T07:17:40.412Z,16.10
2022-12-06T07:19:42.266Z,16.10
2022-12-06T07:21:44.268Z,16.10
2022-12-06T07:23:46.099Z,16.00
2022-12-06T07:25:47.978Z,16.10
2022-12-06T07:27:49.919Z,16.10
2022-12-06T07:29:51.687Z,16.10
2022-12-06T07:31:53.646Z,16.10
2022-12-06T07:33:56.351Z,16.10
2022-12-06T07:36:14.226Z,16.10
2022-12-06T07:38:16.246Z,16.10
2022-12-06T07:40:21.007Z,16.10
2022-12-06T07:42:32.554Z,16.10
2022-12-06T07:44:34.402Z,16.10
2022-12-06T07:46:36.308Z,16.10
2022-12-06T07:48:38.291Z,16.10
2022-12-06T07:50:40.032Z,16.10
2022-12-06T07:52:41.995Z,16.10
2022-12-06T07:54:43.793Z,16.10
2022-12-06T07:56:46.209Z,16.10
2022-12-06T07:58:48.050Z,16.10
2022-12-06T08:00:49.914Z,16.10
2022-12-06T08:02:51.780Z,16.10
2022-12-06T08:04:53.988Z,16.10
2022-12-06T08:06:55.817Z,16.10
2022-12-06T08:08:58.842Z,16.10
2022-12-06T08:11:04.690Z,16.10
2022-12-06T08:13:06.509Z,16.10
2022-12-06T08:15:08.445Z,16.10
2022-12-06T08:17:10.315Z,16.10
2022-12-06T08:19:12.122Z,16.10
2022-12-06T08:21:14.027Z,16.10
2022-12-06T08:23:16.104Z,16.10
2022-12-06T08:25:17.968Z,16.10
2022-12-06T08:27:20.006Z,16.10
2022-12-06T08:29:22.692Z,16.10
2022-12-06T08:31:24.702Z,16.10
2022-12-06T08:33:26.694Z,16.10
2022-12-06T08:35:28.501Z,16.10
2022-12-06T08:37:33.621Z,16.10
2022-12-06T08:39:35.458Z,16.10
2022-12-06T08:41:37.410Z,16.10
2022-12-06T08:43:39.221Z,16.10
2022-12-06T08:45:41.162Z,16.10
2022-12-06T08:52:37.554Z,16.20
2022-12-06T08:59:49.124Z,16.20
2022-12-06T09:04:33.091Z,16.10
2022-12-06T09:09:36.623Z,16.30
2022-12-06T09:15:20.058Z,16.30
2022-12-06T09:27:54.449Z,16.30
2022-12-06T09:30:22.249Z,16.30
2022-12-06T09:32:30.659Z,16.30
2022-12-06T09:34:38.915Z,16.20
2022-12-06T09:36:45.485Z,16.40
2022-12-06T09:39:11.427Z,16.30
2022-12-06T09:41:19.047Z,16.40
2022-12-06T09:43:20.773Z,16.40
2022-12-06T09:45:22.578Z,16.40
2022-12-06T09:47:30.128Z,16.40
2022-12-06T09:49:36.789Z,16.40
2022-12-06T09:51:53.573Z,16.40
2022-12-06T09:53:55.352Z,16.40
2022-12-06T09:56:02.977Z,16.40
2022-12-06T09:58:04.767Z,16.40
2022-12-06T10:00:11.712Z,16.50
2022-12-06T10:02:13.875Z,16.50
2022-12-06T10:04:15.680Z,16.50
2022-12-06T10:06:20.121Z,16.50
2022-12-06T10:08:36.783Z,16.50
2022-12-06T10:10:57.525Z,16.50
2022-12-06T10:13:05.438Z,16.50
2022-12-06T10:15:07.527Z,16.60
2022-12-06T10:17:21.213Z,16.50
2022-12-06T10:19:42.214Z,16.40
2022-12-06T10:21:59.470Z,16.50
2022-12-06T10:24:13.392Z,16.40
2022-12-06T10:26:21.375Z,16.50
2022-12-06T10:28:34.580Z,16.50
2022-12-06T10:30:39.177Z,16.50
2022-12-06T10:32:41.197Z,16.50
2022-12-06T10:34:56.858Z,16.50
2022-12-06T10:39:41.112Z,16.50
2022-12-06T10:41:51.930Z,16.50
2022-12-06T10:43:53.796Z,16.50
2022-12-06T10:46:08.425Z,16.50
2022-12-06T10:48:33.560Z,16.50
2022-12-06T10:50:36.622Z,16.50
2022-12-06T10:52:41.037Z,16.50
2022-12-06T10:54:55.230Z,16.50
2022-12-06T10:57:00.458Z,16.60
2022-12-06T11:01:47.643Z,16.60
2022-12-06T11:03:58.673Z,16.60
2022-12-06T11:06:23.644Z,16.60
2022-12-06T11:08:34.248Z,16.60
2022-12-06T11:10:36.675Z,16.60
2022-12-06T11:12:39.085Z,16.60
2022-12-06T11:46:42.506Z,17.10
2022-12-06T11:51:17.093Z,17.20
2022-12-06T11:53:25.105Z,17.20
2022-12-06T11:55:43.312Z,17.20
2022-12-06T11:58:05.426Z,17.20
2022-12-06T12:00:21.107Z,17.20
2022-12-06T12:02:30.145Z,17.20
2022-12-06T12:04:39.063Z,17.20
2022-12-06T12:06:42.193Z,17.20
2022-12-06T12:08:52.765Z,17.30
2022-12-06T12:11:03.422Z,17.30
2022-12-06T12:13:11.015Z,17.30
2022-12-06T12:15:17.654Z,17.30
2022-12-06T12:17:20.816Z,17.40
2022-12-06T12:19:22.628Z,17.40
2022-12-06T12:21:35.477Z,17.40
2022-12-06T12:23:42.166Z,17.40
2022-12-06T12:25:43.979Z,17.40
2022-12-06T12:27:47.045Z,17.40
2022-12-06T12:29:53.182Z,17.50
2022-12-06T12:31:56.690Z,17.50
2022-12-06T12:34:14.785Z,17.50
2022-12-06T12:36:23.278Z,17.50
2022-12-06T12:38:38.680Z,17.50
2022-12-06T12:40:42.401Z,17.50
2022-12-06T12:42:46.116Z,17.50
2022-12-06T12:44:47.943Z,17.50
2022-12-06T12:47:00.314Z,17.50
2022-12-06T12:49:21.531Z,17.50
2022-12-06T12:51:29.124Z,17.50
2022-12-06T12:53:35.630Z,17.50
2022-12-06T12:55:37.632Z,17.50
2022-12-06T12:57:40.137Z,17.50
2022-12-06T12:59:43.342Z,17.50
2022-12-06T13:01:47.900Z,17.50
2022-12-06T13:03:51.896Z,17.50
2022-12-06T13:05:55.671Z,17.50
2022-12-06T13:08:01.964Z,17.50
2022-12-06T13:10:06.874Z,17.50
2022-12-06T13:12:15.007Z,17.50
2022-12-06T13:14:19.475Z,17.40
2022-12-06T13:16:24.587Z,17.40
2022-12-06T13:18:35.083Z,17.40
2022-12-06T13:20:37.459Z,17.40
2022-12-06T13:22:43.776Z,17.40
2022-12-06T13:24:47.065Z,17.40
2022-12-06T13:27:03.276Z,17.40
2022-12-06T13:29:23.761Z,17.40
2022-12-06T13:31:29.206Z,17.40
2022-12-06T13:33:33.124Z,17.40
2022-12-06T13:35:37.677Z,17.40
2022-12-06T13:37:44.406Z,17.40
2022-12-06T13:39:48.748Z,17.40
2022-12-06T13:41:55.489Z,17.40
2022-12-06T13:43:57.616Z,17.40
2022-12-06T13:46:18.124Z,17.30
2022-12-06T13:51:33.209Z,16.40
2022-12-06T13:54:15.855Z,16.10
2022-12-06T13:56:27.875Z,16.30
2022-12-06T14:05:36.821Z,17.00
2022-12-06T14:09:50.050Z,17.10
2022-12-06T14:11:52.188Z,17.10
2022-12-06T14:13:56.477Z,17.10
2022-12-06T14:16:11.359Z,17.10
2022-12-06T14:18:20.123Z,17.30
2022-12-06T14:20:24.338Z,17.20
2022-12-06T14:22:27.202Z,17.20
2022-12-06T14:24:39.655Z,17.20
2022-12-06T14:26:41.482Z,17.20
2022-12-06T14:28:43.510Z,17.20
2022-12-06T14:30:45.394Z,17.20
2022-12-06T14:32:48.770Z,17.20
2022-12-06T14:34:51.527Z,17.20
2022-12-06T14:36:54.024Z,17.20
2022-12-06T14:38:57.716Z,17.20
2022-12-06T14:41:00.577Z,17.20
2022-12-06T14:43:04.576Z,17.20
2022-12-06T14:45:21.536Z,17.20
2022-12-06T14:49:34.803Z,17.20
2022-12-06T14:51:38.409Z,17.20
2022-12-06T14:53:40.290Z,17.20
2022-12-06T14:55:53.565Z,17.20
2022-12-06T14:57:57.056Z,17.20
2022-12-06T15:00:16.105Z,17.20
2022-12-06T15:02:28.350Z,17.20
2022-12-06T15:04:38.047Z,17.30
2022-12-06T15:06:50.601Z,17.20
2022-12-06T15:08:58.422Z,17.00
2022-12-06T15:11:05.520Z,16.30
2022-12-06T15:13:16.841Z,16.30
2022-12-06T15:15:54.601Z,16.50
2022-12-06T15:18:23.261Z,16.60
2022-12-06T15:20:25.211Z,16.80
2022-12-06T15:22:27.886Z,16.80
2022-12-06T15:24:30.116Z,16.80
2022-12-06T15:26:32.011Z,16.90
2022-12-06T15:28:34.600Z,16.90
2022-12-06T15:30:36.643Z,16.90
2022-12-06T15:32:38.508Z,16.90
2022-12-06T15:34:40.877Z,16.90
2022-12-06T15:36:48.226Z,16.90
2022-12-06T15:38:50.922Z,17.00
2022-12-06T15:40:57.174Z,16.90
2022-12-06T15:43:02.311Z,17.00
2022-12-06T15:45:05.124Z,17.00
2022-12-06T15:47:07.117Z,16.90
2022-12-06T15:49:09.296Z,17.00
2022-12-06T15:51:18.870Z,17.00
2022-12-06T15:53:23.301Z,17.00
2022-12-06T15:55:25.248Z,17.00
2022-12-06T15:57:27.336Z,17.00
2022-12-06T15:59:29.287Z,17.00
2022-12-06T16:01:38.109Z,17.00
2022-12-06T16:03:43.862Z,17.00
2022-12-06T16:05:45.705Z,17.00
2022-12-06T16:07:47.669Z,17.00
2022-12-06T16:09:49.518Z,17.00
2022-12-06T16:11:51.373Z,17.00
2022-12-06T16:13:53.323Z,17.00
2022-12-06T16:15:56.269Z,17.00
2022-12-06T16:17:58.121Z,17.00
2022-12-06T16:20:02.878Z,16.90
2022-12-06T16:22:04.798Z,17.00
2022-12-06T16:24:13.843Z,16.90
2022-12-06T16:26:17.012Z,16.90
2022-12-06T16:28:18.995Z,16.90
2022-12-06T16:30:34.150Z,17.00
2022-12-06T16:32:36.218Z,16.90
2022-12-06T16:34:38.030Z,16.90
2022-12-06T16:36:59.349Z,16.90
2022-12-06T16:39:05.036Z,16.90
2022-12-06T16:41:08.756Z,17.00
2022-12-06T16:43:11.036Z,16.90
2022-12-06T16:45:14.140Z,17.00
2022-12-06T16:47:15.919Z,16.90
2022-12-06T16:51:42.730Z,16.90
2022-12-06T16:53:45.320Z,16.60
2022-12-06T16:55:47.205Z,15.60
2022-12-06T16:57:49.182Z,15.30
2022-12-06T16:59:52.431Z,15.80
2022-12-06T17:01:55.144Z,16.30
2022-12-06T17:03:58.692Z,16.70
2022-12-06T17:06:00.858Z,17.00
2022-12-06T17:08:02.975Z,17.10
2022-12-06T17:10:05.426Z,16.70
2022-12-06T17:12:08.735Z,16.50
2022-12-06T17:14:14.702Z,16.40
2022-12-06T17:16:16.829Z,16.40
2022-12-06T17:18:18.944Z,16.30
2022-12-06T17:20:28.098Z,16.30
2022-12-06T17:22:30.114Z,16.40
2022-12-06T17:24:34.587Z,16.40
2022-12-06T17:26:36.531Z,16.40
2022-12-06T17:28:38.408Z,16.40
2022-12-06T17:30:40.425Z,16.40
2022-12-06T17:32:42.357Z,16.50
2022-12-06T17:34:44.424Z,16.50
2022-12-06T17:36:47.142Z,16.50
2022-12-06T17:38:49.135Z,16.50
2022-12-06T17:40:51.041Z,16.50
2022-12-06T17:42:53.009Z,16.50
2022-12-06T17:44:55.082Z,16.50
2022-12-06T17:46:57.088Z,16.60
2022-12-06T17:48:59.307Z,16.50
2022-12-06T17:51:01.340Z,16.50
2022-12-06T17:53:03.114Z,16.50
2022-12-06T17:55:05.306Z,16.50
2022-12-06T17:57:08.835Z,16.60
2022-12-06T17:59:11.863Z,16.60
2022-12-06T18:01:13.748Z,16.60
2022-12-06T18:03:15.832Z,16.60
2022-12-06T18:05:23.152Z,16.60
2022-12-06T18:07:25.231Z,16.50
2022-12-06T18:09:27.080Z,16.60
2022-12-06T18:11:29.305Z,16.60
2022-12-06T18:13:31.577Z,16.50
2022-12-06T18:15:33.535Z,16.50
2022-12-06T18:17:35.342Z,16.50
2022-12-06T18:19:39.977Z,16.50
2022-12-06T18:21:42.116Z,16.50
2022-12-06T18:24:05.471Z,16.50
2022-12-06T18:26:07.010Z,16.60
2022-12-06T18:28:08.976Z,16.50
2022-12-06T18:30:11.173Z,16.50
2022-12-06T18:32:13.220Z,16.50
2022-12-06T18:34:15.144Z,16.50
2022-12-06T18:36:19.121Z,16.50
2022-12-06T18:38:20.935Z,16.50
2022-12-06T18:40:22.984Z,16.50
2022-12-06T18:42:24.866Z,16.50
2022-12-06T18:44:26.829Z,16.50
2022-12-06T18:46:28.750Z,16.50
2022-12-06T18:48:30.991Z,16.50
2022-12-06T18:50:35.100Z,16.50
2022-12-06T18:52:37.231Z,16.50
2022-12-06T18:54:39.296Z,16.50
2022-12-06T18:56:41.306Z,16.50
2022-12-06T18:58:45.563Z,16.50
2022-12-06T19:00:47.712Z,16.50
2022-12-06T19:02:52.513Z,16.50
2022-12-06T19:04:54.485Z,16.50
2022-12-06T19:06:56.491Z,16.50
2022-12-06T19:09:00.440Z,16.50
2022-12-06T19:11:06.693Z,16.50
2022-12-06T19:13:09.344Z,16.50
2022-12-06T19:15:11.288Z,16.50
2022-12-06T19:17:13.335Z,16.50
2022-12-06T19:19:20.541Z,16.50
2022-12-06T19:21:22.922Z,16.50
2022-12-06T19:23:26.315Z,16.50
2022-12-06T19:25:28.903Z,16.50
2022-12-06T19:27:30.746Z,16.50
2022-12-06T19:29:32.751Z,16.50
2022-12-06T19:31:35.043Z,16.50
2022-12-06T19:33:38.108Z,16.50
2022-12-06T19:35:40.015Z,16.50
2022-12-06T19:37:41.952Z,16.50
2022-12-06T19:39:44.284Z,16.50
2022-12-06T19:41:46.805Z,16.50
2022-12-06T19:43:48.631Z,16.50
2022-12-06T19:45:50.610Z,16.50
2022-12-06T19:47:52.595Z,16.50
2022-12-06T19:49:54.627Z,16.50
2022-12-06T19:51:56.565Z,16.50
2022-12-06T19:54:03.622Z,16.50
2022-12-06T19:56:06.707Z,16.50
2022-12-06T19:58:08.981Z,16.50
2022-12-06T20:00:11.301Z,16.50
2022-12-06T20:02:14.196Z,16.50
2022-12-06T20:04:17.422Z,16.50
2022-12-06T20:06:20.717Z,16.50
2022-12-06T20:08:23.006Z,16.50
2022-12-06T20:10:27.967Z,16.50
2022-12-06T20:12:29.828Z,16.40
2022-12-06T20:14:38.033Z,16.50
2022-12-06T20:16:40.311Z,16.50
2022-12-06T20:18:42.351Z,16.50
2022-12-06T20:20:46.461Z,16.40
2022-12-06T20:22:48.460Z,16.40
2022-12-06T20:24:50.312Z,16.50
2022-12-06T20:26:53.349Z,16.50
2022-12-06T20:28:55.189Z,16.40
2022-12-06T20:30:57.179Z,16.40
2022-12-06T20:32:59.027Z,16.40
2022-12-06T20:35:01.237Z,16.50
2022-12-06T20:37:03.981Z,16.40
2022-12-06T20:39:06.010Z,16.40
2022-12-06T20:41:14.184Z,16.40
2022-12-06T20:43:16.131Z,16.40
2022-12-06T20:45:17.964Z,16.40
2022-12-06T20:47:20.176Z,16.40
2022-12-06T20:49:21.929Z,16.40
2022-12-06T20:51:25.277Z,16.40
2022-12-06T20:53:27.042Z,16.40
2022-12-06T20:55:28.889Z,16.40
2022-12-06T20:57:30.723Z,16.40
2022-12-06T20:59:32.518Z,16.40
2022-12-06T21:01:35.814Z,16.40
2022-12-06T21:03:37.694Z,16.40
2022-12-06T21:05:43.332Z,16.40
2022-12-06T21:07:48.058Z,16.40
2022-12-06T21:09:49.875Z,16.40
2022-12-06T21:11:51.707Z,16.40
2022-12-06T21:13:54.440Z,16.40
2022-12-06T21:16:06.626Z,16.40
2022-12-06T21:18:08.455Z,16.40
2022-12-06T21:20:10.514Z,16.40
2022-12-06T21:22:12.254Z,16.40
2022-12-06T21:24:16.263Z,16.40
2022-12-06T21:26:18.247Z,16.40
2022-12-06T21:28:20.236Z,16.40
2022-12-06T21:30:22.047Z,16.40
2022-12-06T21:32:23.885Z,16.40
2022-12-06T21:34:25.653Z,16.40
2022-12-06T21:36:27.935Z,16.40
2022-12-06T21:38:30.070Z,16.40
2022-12-06T21:40:31.902Z,16.40
2022-12-06T21:42:33.642Z,16.40
2022-12-06T21:44:35.469Z,16.40
2022-12-06T21:46:37.436Z,16.40
2022-12-06T21:48:39.360Z,16.40
2022-12-06T21:50:41.120Z,16.40
2022-12-06T21:52:42.932Z,16.40
2022-12-06T21:54:44.680Z,16.40
2022-12-06T21:56:46.528Z,16.40
2022-12-06T21:58:48.697Z,16.40
2022-12-06T22:00:50.601Z,16.40
2022-12-06T22:02:52.821Z,16.40
2022-12-06T22:04:54.704Z,16.40
2022-12-06T22:06:56.590Z,16.40
2022-12-06T22:08:59.678Z,16.40
2022-12-06T22:11:05.556Z,16.40
2022-12-06T22:13:07.402Z,16.40
2022-12-06T22:15:09.406Z,16.40
2022-12-06T22:17:11.216Z,16.40
2022-12-06T22:19:13.010Z,16.30
2022-12-06T22:21:16.481Z,16.40
2022-12-06T22:23:18.222Z,16.30
2022-12-06T22:25:20.078Z,16.30
2022-12-06T22:27:21.838Z,16.40
2022-12-06T22:29:23.772Z,16.30
2022-12-06T22:31:26.930Z,16.40
2022-12-06T22:33:28.755Z,16.40
2022-12-06T22:35:30.977Z,16.30
2022-12-06T22:37:32.899Z,16.30
2022-12-06T22:39:34.692Z,16.40
2022-12-06T22:41:36.716Z,16.30
2022-12-06T22:43:38.507Z,16.30
2022-12-06T22:45:40.347Z,16.30
2022-12-06T22:47:42.140Z,16.30
2022-12-06T22:49:43.926Z,16.30
2022-12-06T22:51:45.692Z,16.30
2022-12-06T22:53:51.642Z,16.30
2022-12-06T22:55:53.394Z,16.30
2022-12-06T22:57:55.228Z,16.30
2022-12-06T22:59:57.005Z,16.30
2022-12-06T23:01:58.871Z,16.30
2022-12-06T23:04:02.149Z,16.30
2022-12-06T23:06:04.577Z,16.30
2022-12-06T23:08:06.378Z,16.30
2022-12-06T23:10:08.657Z,16.30
2022-12-06T23:12:10.427Z,16.30
2022-12-06T23:14:12.270Z,16.30
2022-12-06T23:16:15.225Z,16.30
2022-12-06T23:18:17.099Z,16.30
2022-12-06T23:20:18.915Z,16.30
2022-12-06T23:22:20.714Z,16.30
2022-12-06T23:24:22.465Z,16.30
2022-12-06T23:26:25.500Z,16.30
2022-12-06T23:28:27.240Z,16.30
2022-12-06T23:30:29.036Z,16.30
2022-12-06T23:32:30.811Z,16.30
2022-12-06T23:34:33.282Z,16.30
2022-12-06T23:36:35.507Z,16.30
2022-12-06T23:38:37.631Z,16.30
2022-12-06T23:40:39.371Z,16.30
2022-12-06T23:42:41.204Z,16.30
2022-12-06T23:44:42.952Z,16.30
2022-12-06T23:46:44.769Z,16.30
2022-12-06T23:48:46.569Z,16.30
2022-12-06T23:50:48.392Z,16.30
2022-12-06T23:52:50.181Z,16.30
2022-12-06T23:54:51.995Z,16.30
2022-12-06T23:56:53.779Z,16.30
2022-12-06T23:58:55.761Z,16.30
